sensor_id;sensor_type;location;lat;lon;timestamp;temperature;humidity
15765;DHT22;7983;50.744;7.086;2022-08-18T00:04:45;22.30;99.80
15765;DHT22;7983;50.744;7.086;2022-08-18T00:07:17;22.20;99.50
15765;DHT22;7983;50.744;7.086;2022-08-18T00:09:45;22.20;99.90
15765;DHT22;7983;50.744;7.086;2022-08-18T00:12:26;22.20;99.90
15765;DHT22;7983;50.744;7.086;2022-08-18T00:14:52;22.10;99.90
15765;DHT22;7983;50.744;7.086;2022-08-18T00:17:18;22.10;99.90
15765;DHT22;7983;50.744;7.086;2022-08-18T00:19:50;22.10;99.90
15765;DHT22;7983;50.744;7.086;2022-08-18T00:22:20;22.10;99.90
15765;DHT22;7983;50.744;7.086;2022-08-18T00:24:52;22.10;99.90
15765;DHT22;7983;50.744;7.086;2022-08-18T00:27:21;22.00;99.90
15765;DHT22;7983;50.744;7.086;2022-08-18T00:29:50;22.00;99.90
15765;DHT22;7983;50.744;7.086;2022-08-18T00:32:20;21.90;99.90
15765;DHT22;7983;50.744;7.086;2022-08-18T00:34:48;21.90;99.90
15765;DHT22;7983;50.744;7.086;2022-08-18T00:37:16;21.90;99.90
15765;DHT22;7983;50.744;7.086;2022-08-18T00:39:44;21.90;99.90
15765;DHT22;7983;50.744;7.086;2022-08-18T00:42:18;21.80;99.90
15765;DHT22;7983;50.744;7.086;2022-08-18T00:44:46;21.80;99.90
15765;DHT22;7983;50.744;7.086;2022-08-18T00:47:14;21.70;99.90
15765;DHT22;7983;50.744;7.086;2022-08-18T00:49:46;21.70;99.90
15765;DHT22;7983;50.744;7.086;2022-08-18T00:52:16;21.70;99.90
15765;DHT22;7983;50.744;7.086;2022-08-18T00:54:44;21.60;99.90
15765;DHT22;7983;50.744;7.086;2022-08-18T00:57:11;21.60;99.90
15765;DHT22;7983;50.744;7.086;2022-08-18T00:59:55;21.60;99.90
15765;DHT22;7983;50.744;7.086;2022-08-18T01:02:35;21.60;99.90
15765;DHT22;7983;50.744;7.086;2022-08-18T01:05:22;21.50;99.90
15765;DHT22;7983;50.744;7.086;2022-08-18T01:07:51;21.50;99.90
15765;DHT22;7983;50.744;7.086;2022-08-18T01:10:21;21.50;99.90
15765;DHT22;7983;50.744;7.086;2022-08-18T01:12:57;21.40;99.90
15765;DHT22;7983;50.744;7.086;2022-08-18T01:15:26;21.40;99.90
15765;DHT22;7983;50.744;7.086;2022-08-18T01:17:57;21.30;99.90
15765;DHT22;7983;50.744;7.086;2022-08-18T01:21:13;21.30;99.90
15765;DHT22;7983;50.744;7.086;2022-08-18T01:24:01;21.20;99.90
15765;DHT22;7983;50.744;7.086;2022-08-18T01:26:28;21.20;99.90
15765;DHT22;7983;50.744;7.086;2022-08-18T01:28:55;21.10;99.90
15765;DHT22;7983;50.744;7.086;2022-08-18T01:31:40;21.10;99.90
15765;DHT22;7983;50.744;7.086;2022-08-18T01:34:10;21.10;99.90
15765;DHT22;7983;50.744;7.086;2022-08-18T01:36:37;21.10;99.90
15765;DHT22;7983;50.744;7.086;2022-08-18T01:39:09;21.10;99.90
15765;DHT22;7983;50.744;7.086;2022-08-18T01:41:36;21.10;99.90
15765;DHT22;7983;50.744;7.086;2022-08-18T01:44:03;21.10;99.90
15765;DHT22;7983;50.744;7.086;2022-08-18T01:46:34;21.10;99.90
15765;DHT22;7983;50.744;7.086;2022-08-18T01:49:03;21.10;99.90
15765;DHT22;7983;50.744;7.086;2022-08-18T01:51:31;21.10;99.90
15765;DHT22;7983;50.744;7.086;2022-08-18T01:53:57;21.10;99.90
15765;DHT22;7983;50.744;7.086;2022-08-18T01:56:24;21.10;99.90
15765;DHT22;7983;50.744;7.086;2022-08-18T01:58:52;21.10;99.90
15765;DHT22;7983;50.744;7.086;2022-08-18T02:01:17;21.10;99.90
15765;DHT22;7983;50.744;7.086;2022-08-18T02:03:50;21.00;99.90
15765;DHT22;7983;50.744;7.086;2022-08-18T02:06:17;21.00;99.90
15765;DHT22;7983;50.744;7.086;2022-08-18T02:08:44;21.00;99.90
15765;DHT22;7983;50.744;7.086;2022-08-18T02:11:10;21.00;99.90
15765;DHT22;7983;50.744;7.086;2022-08-18T02:13:36;20.90;99.90
15765;DHT22;7983;50.744;7.086;2022-08-18T02:16:02;20.90;99.90
15765;DHT22;7983;50.744;7.086;2022-08-18T02:18:35;20.80;99.90
15765;DHT22;7983;50.744;7.086;2022-08-18T02:21:09;20.80;99.90
15765;DHT22;7983;50.744;7.086;2022-08-18T02:23:35;20.80;99.90
15765;DHT22;7983;50.744;7.086;2022-08-18T02:26:06;20.70;99.90
15765;DHT22;7983;50.744;7.086;2022-08-18T02:28:32;20.70;99.90
15765;DHT22;7983;50.744;7.086;2022-08-18T02:31:04;20.70;99.90
15765;DHT22;7983;50.744;7.086;2022-08-18T02:33:32;20.70;99.90
15765;DHT22;7983;50.744;7.086;2022-08-18T02:36:00;20.70;99.90
15765;DHT22;7983;50.744;7.086;2022-08-18T02:38:27;20.60;99.90
15765;DHT22;7983;50.744;7.086;2022-08-18T02:41:03;20.60;99.90
15765;DHT22;7983;50.744;7.086;2022-08-18T02:43:33;20.60;99.90
15765;DHT22;7983;50.744;7.086;2022-08-18T02:45:59;20.50;99.90
15765;DHT22;7983;50.744;7.086;2022-08-18T02:48:25;20.50;99.90
15765;DHT22;7983;50.744;7.086;2022-08-18T02:50:59;20.50;99.90
15765;DHT22;7983;50.744;7.086;2022-08-18T02:53:24;20.50;99.90
15765;DHT22;7983;50.744;7.086;2022-08-18T02:55:50;20.50;99.90
15765;DHT22;7983;50.744;7.086;2022-08-18T02:58:16;20.50;99.90
15765;DHT22;7983;50.744;7.086;2022-08-18T03:00:44;20.50;99.90
15765;DHT22;7983;50.744;7.086;2022-08-18T03:03:10;20.50;99.90
15765;DHT22;7983;50.744;7.086;2022-08-18T03:05:40;20.50;99.90
15765;DHT22;7983;50.744;7.086;2022-08-18T03:08:05;20.50;99.90
15765;DHT22;7983;50.744;7.086;2022-08-18T03:10:31;20.40;99.90
15765;DHT22;7983;50.744;7.086;2022-08-18T03:12:57;20.40;99.90
15765;DHT22;7983;50.744;7.086;2022-08-18T03:15:22;20.40;99.90
15765;DHT22;7983;50.744;7.086;2022-08-18T03:17:48;20.40;99.90
15765;DHT22;7983;50.744;7.086;2022-08-18T03:20:16;20.40;99.90
15765;DHT22;7983;50.744;7.086;2022-08-18T03:22:44;20.40;99.90
15765;DHT22;7983;50.744;7.086;2022-08-18T03:25:12;20.40;99.90
15765;DHT22;7983;50.744;7.086;2022-08-18T03:27:38;20.40;99.90
15765;DHT22;7983;50.744;7.086;2022-08-18T03:30:04;20.40;99.90
15765;DHT22;7983;50.744;7.086;2022-08-18T03:32:34;20.40;99.90
15765;DHT22;7983;50.744;7.086;2022-08-18T03:35:04;20.40;99.90
15765;DHT22;7983;50.744;7.086;2022-08-18T03:37:30;20.40;99.90
15765;DHT22;7983;50.744;7.086;2022-08-18T03:39:59;20.40;99.90
15765;DHT22;7983;50.744;7.086;2022-08-18T03:42:27;20.40;99.90
15765;DHT22;7983;50.744;7.086;2022-08-18T03:44:52;20.50;99.90
15765;DHT22;7983;50.744;7.086;2022-08-18T03:47:18;20.50;99.90
15765;DHT22;7983;50.744;7.086;2022-08-18T03:49:46;20.50;99.90
15765;DHT22;7983;50.744;7.086;2022-08-18T03:52:13;20.50;99.90
15765;DHT22;7983;50.744;7.086;2022-08-18T03:54:39;20.50;99.90
15765;DHT22;7983;50.744;7.086;2022-08-18T03:57:09;20.50;99.90
15765;DHT22;7983;50.744;7.086;2022-08-18T03:59:36;20.60;99.90
15765;DHT22;7983;50.744;7.086;2022-08-18T04:02:03;20.60;99.90
15765;DHT22;7983;50.744;7.086;2022-08-18T04:04:29;20.60;99.90
15765;DHT22;7983;50.744;7.086;2022-08-18T04:07:01;20.60;99.90
15765;DHT22;7983;50.744;7.086;2022-08-18T04:09:32;20.70;99.90
15765;DHT22;7983;50.744;7.086;2022-08-18T04:12:04;20.70;99.90
15765;DHT22;7983;50.744;7.086;2022-08-18T04:14:33;20.70;99.90
15765;DHT22;7983;50.744;7.086;2022-08-18T04:17:01;20.70;99.90
15765;DHT22;7983;50.744;7.086;2022-08-18T04:19:27;20.80;99.90
15765;DHT22;7983;50.744;7.086;2022-08-18T04:21:53;20.80;99.90
15765;DHT22;7983;50.744;7.086;2022-08-18T04:24:22;20.80;99.90
15765;DHT22;7983;50.744;7.086;2022-08-18T04:26:48;20.80;99.90
15765;DHT22;7983;50.744;7.086;2022-08-18T04:29:15;20.80;99.90
15765;DHT22;7983;50.744;7.086;2022-08-18T04:31:42;20.80;99.90
15765;DHT22;7983;50.744;7.086;2022-08-18T04:34:08;20.90;99.90
15765;DHT22;7983;50.744;7.086;2022-08-18T04:36:35;20.90;99.90
15765;DHT22;7983;50.744;7.086;2022-08-18T04:39:05;20.90;99.90
15765;DHT22;7983;50.744;7.086;2022-08-18T04:41:31;20.90;99.90
15765;DHT22;7983;50.744;7.086;2022-08-18T04:44:03;20.90;99.90
15765;DHT22;7983;50.744;7.086;2022-08-18T04:46:30;20.90;99.90
15765;DHT22;7983;50.744;7.086;2022-08-18T04:48:59;20.90;99.90
15765;DHT22;7983;50.744;7.086;2022-08-18T04:51:26;20.90;99.90
15765;DHT22;7983;50.744;7.086;2022-08-18T04:53:53;20.90;99.90
15765;DHT22;7983;50.744;7.086;2022-08-18T04:56:28;20.90;99.90
15765;DHT22;7983;50.744;7.086;2022-08-18T04:58:58;20.90;99.90
15765;DHT22;7983;50.744;7.086;2022-08-18T05:01:30;20.90;99.90
15765;DHT22;7983;50.744;7.086;2022-08-18T05:03:57;20.90;99.90
15765;DHT22;7983;50.744;7.086;2022-08-18T05:06:25;20.90;99.90
15765;DHT22;7983;50.744;7.086;2022-08-18T05:08:56;20.90;99.90
15765;DHT22;7983;50.744;7.086;2022-08-18T05:11:24;20.90;99.90
15765;DHT22;7983;50.744;7.086;2022-08-18T05:13:55;20.90;99.90
15765;DHT22;7983;50.744;7.086;2022-08-18T05:16:25;20.90;99.90
15765;DHT22;7983;50.744;7.086;2022-08-18T05:18:51;20.90;99.90
15765;DHT22;7983;50.744;7.086;2022-08-18T05:21:21;20.90;99.90
15765;DHT22;7983;50.744;7.086;2022-08-18T05:23:49;20.90;99.90
15765;DHT22;7983;50.744;7.086;2022-08-18T05:26:16;20.90;99.90
15765;DHT22;7983;50.744;7.086;2022-08-18T05:28:43;20.90;99.90
15765;DHT22;7983;50.744;7.086;2022-08-18T05:31:16;21.00;99.90
15765;DHT22;7983;50.744;7.086;2022-08-18T05:33:44;21.00;99.90
15765;DHT22;7983;50.744;7.086;2022-08-18T05:43:43;21.00;99.90
15765;DHT22;7983;50.744;7.086;2022-08-18T05:46:10;21.10;99.90
15765;DHT22;7983;50.744;7.086;2022-08-18T05:48:38;21.10;99.90
15765;DHT22;7983;50.744;7.086;2022-08-18T05:51:46;21.10;99.90
15765;DHT22;7983;50.744;7.086;2022-08-18T05:54:03;21.10;99.90
15765;DHT22;7983;50.744;7.086;2022-08-18T05:56:50;21.10;99.90
15765;DHT22;7983;50.744;7.086;2022-08-18T05:59:24;21.10;99.90
15765;DHT22;7983;50.744;7.086;2022-08-18T06:01:56;21.10;99.90
15765;DHT22;7983;50.744;7.086;2022-08-18T06:07:09;21.10;99.90
15765;DHT22;7983;50.744;7.086;2022-08-18T06:09:46;21.10;99.90
15765;DHT22;7983;50.744;7.086;2022-08-18T06:12:23;21.10;99.90
15765;DHT22;7983;50.744;7.086;2022-08-18T06:15:44;21.10;99.90
15765;DHT22;7983;50.744;7.086;2022-08-18T06:28:24;21.00;99.90
15765;DHT22;7983;50.744;7.086;2022-08-18T06:31:02;21.00;99.90
15765;DHT22;7983;50.744;7.086;2022-08-18T06:41:53;20.80;99.90
15765;DHT22;7983;50.744;7.086;2022-08-18T06:47:18;20.80;99.90
15765;DHT22;7983;50.744;7.086;2022-08-18T06:49:51;20.80;99.90
15765;DHT22;7983;50.744;7.086;2022-08-18T06:54:47;20.80;99.90
15765;DHT22;7983;50.744;7.086;2022-08-18T06:57:34;20.80;99.90
15765;DHT22;7983;50.744;7.086;2022-08-18T07:02:56;20.80;99.90
15765;DHT22;7983;50.744;7.086;2022-08-18T07:05:32;20.80;99.90
15765;DHT22;7983;50.744;7.086;2022-08-18T07:08:12;20.80;99.90
15765;DHT22;7983;50.744;7.086;2022-08-18T07:10:47;20.70;99.90
15765;DHT22;7983;50.744;7.086;2022-08-18T07:15:45;20.70;99.90
15765;DHT22;7983;50.744;7.086;2022-08-18T07:18:20;20.70;99.90
15765;DHT22;7983;50.744;7.086;2022-08-18T07:20:49;20.70;99.90
15765;DHT22;7983;50.744;7.086;2022-08-18T07:23:33;20.70;99.90
15765;DHT22;7983;50.744;7.086;2022-08-18T07:26:12;20.60;99.90
15765;DHT22;7983;50.744;7.086;2022-08-18T07:28:46;20.60;99.90
15765;DHT22;7983;50.744;7.086;2022-08-18T07:33:41;20.50;99.90
15765;DHT22;7983;50.744;7.086;2022-08-18T07:36:09;20.50;99.90
15765;DHT22;7983;50.744;7.086;2022-08-18T07:38:45;20.50;99.90
15765;DHT22;7983;50.744;7.086;2022-08-18T07:41:19;20.50;99.90
15765;DHT22;7983;50.744;7.086;2022-08-18T07:46:23;20.50;99.90
15765;DHT22;7983;50.744;7.086;2022-08-18T07:48:52;20.60;99.90
15765;DHT22;7983;50.744;7.086;2022-08-18T07:51:28;20.60;99.90
15765;DHT22;7983;50.744;7.086;2022-08-18T07:54:07;20.60;99.90
15765;DHT22;7983;50.744;7.086;2022-08-18T08:04:50;20.70;99.90
15765;DHT22;7983;50.744;7.086;2022-08-18T08:07:27;20.70;99.90
15765;DHT22;7983;50.744;7.086;2022-08-18T08:15:25;20.80;99.90
15765;DHT22;7983;50.744;7.086;2022-08-18T08:18:30;20.80;99.90
15765;DHT22;7983;50.744;7.086;2022-08-18T08:21:01;20.90;99.90
15765;DHT22;7983;50.744;7.086;2022-08-18T08:29:47;21.00;99.90
15765;DHT22;7983;50.744;7.086;2022-08-18T08:32:34;21.10;99.90
15765;DHT22;7983;50.744;7.086;2022-08-18T08:37:47;21.30;99.90
15765;DHT22;7983;50.744;7.086;2022-08-18T08:40:34;21.30;99.90
15765;DHT22;7983;50.744;7.086;2022-08-18T08:43:07;21.40;99.90
15765;DHT22;7983;50.744;7.086;2022-08-18T08:45:43;21.40;99.90
15765;DHT22;7983;50.744;7.086;2022-08-18T08:48:17;21.50;99.90
15765;DHT22;7983;50.744;7.086;2022-08-18T08:50:48;21.50;99.90
15765;DHT22;7983;50.744;7.086;2022-08-18T08:53:31;21.60;99.90
15765;DHT22;7983;50.744;7.086;2022-08-18T08:56:07;21.60;99.90
15765;DHT22;7983;50.744;7.086;2022-08-18T08:58:42;21.70;99.90
15765;DHT22;7983;50.744;7.086;2022-08-18T09:01:25;21.70;99.90
15765;DHT22;7983;50.744;7.086;2022-08-18T09:09:57;21.80;99.90
15765;DHT22;7983;50.744;7.086;2022-08-18T09:12:53;21.70;99.90
15765;DHT22;7983;50.744;7.086;2022-08-18T09:15:39;21.70;99.90
15765;DHT22;7983;50.744;7.086;2022-08-18T09:24:07;21.80;99.90
15765;DHT22;7983;50.744;7.086;2022-08-18T09:29:44;22.00;99.90
15765;DHT22;7983;50.744;7.086;2022-08-18T09:37:22;22.40;99.90
15765;DHT22;7983;50.744;7.086;2022-08-18T09:43:05;22.60;99.90
15765;DHT22;7983;50.744;7.086;2022-08-18T09:46:07;22.70;99.90
15765;DHT22;7983;50.744;7.086;2022-08-18T09:48:30;22.70;99.90
15765;DHT22;7983;50.744;7.086;2022-08-18T09:56:14;22.70;99.90
15765;DHT22;7983;50.744;7.086;2022-08-18T10:01:31;22.70;99.90
15765;DHT22;7983;50.744;7.086;2022-08-18T10:06:42;22.80;99.90
15765;DHT22;7983;50.744;7.086;2022-08-18T10:09:20;22.80;99.90
15765;DHT22;7983;50.744;7.086;2022-08-18T10:12:27;22.80;99.90
15765;DHT22;7983;50.744;7.086;2022-08-18T10:23:58;23.00;99.90
15765;DHT22;7983;50.744;7.086;2022-08-18T10:34:49;23.20;99.90
15765;DHT22;7983;50.744;7.086;2022-08-18T10:37:43;23.20;99.90
15765;DHT22;7983;50.744;7.086;2022-08-18T10:40:17;23.30;99.90
15765;DHT22;7983;50.744;7.086;2022-08-18T10:42:51;23.40;99.90
15765;DHT22;7983;50.744;7.086;2022-08-18T10:45:29;23.40;99.90
15765;DHT22;7983;50.744;7.086;2022-08-18T10:48:33;23.40;99.90
15765;DHT22;7983;50.744;7.086;2022-08-18T10:51:18;23.40;99.90
15765;DHT22;7983;50.744;7.086;2022-08-18T10:53:57;23.40;99.90
15765;DHT22;7983;50.744;7.086;2022-08-18T11:04:51;23.70;99.90
15765;DHT22;7983;50.744;7.086;2022-08-18T11:07:28;23.80;99.90
15765;DHT22;7983;50.744;7.086;2022-08-18T11:09:58;23.90;99.90
15765;DHT22;7983;50.744;7.086;2022-08-18T11:21:20;24.40;99.90
15765;DHT22;7983;50.744;7.086;2022-08-18T11:23:39;24.50;99.90
15765;DHT22;7983;50.744;7.086;2022-08-18T11:26:14;24.60;99.90
15765;DHT22;7983;50.744;7.086;2022-08-18T11:28:40;24.70;99.90
15765;DHT22;7983;50.744;7.086;2022-08-18T11:31:09;24.80;99.90
15765;DHT22;7983;50.744;7.086;2022-08-18T11:33:39;24.90;99.90
15765;DHT22;7983;50.744;7.086;2022-08-18T11:36:06;25.00;99.90
15765;DHT22;7983;50.744;7.086;2022-08-18T11:38:36;25.00;99.90
15765;DHT22;7983;50.744;7.086;2022-08-18T11:43:37;25.10;99.90
15765;DHT22;7983;50.744;7.086;2022-08-18T11:46:39;25.20;99.90
15765;DHT22;7983;50.744;7.086;2022-08-18T11:49:29;25.20;99.90
15765;DHT22;7983;50.744;7.086;2022-08-18T11:52:22;25.30;99.90
15765;DHT22;7983;50.744;7.086;2022-08-18T11:54:49;25.40;99.90
15765;DHT22;7983;50.744;7.086;2022-08-18T11:57:38;25.40;99.90
15765;DHT22;7983;50.744;7.086;2022-08-18T12:03:28;25.60;99.90
15765;DHT22;7983;50.744;7.086;2022-08-18T12:06:08;25.70;99.90
15765;DHT22;7983;50.744;7.086;2022-08-18T12:08:51;25.70;99.90
15765;DHT22;7983;50.744;7.086;2022-08-18T12:11:21;25.70;99.90
15765;DHT22;7983;50.744;7.086;2022-08-18T12:14:04;25.70;99.90
15765;DHT22;7983;50.744;7.086;2022-08-18T12:16:41;25.60;99.90
15765;DHT22;7983;50.744;7.086;2022-08-18T12:19:10;25.60;99.90
15765;DHT22;7983;50.744;7.086;2022-08-18T12:21:52;25.60;99.90
15765;DHT22;7983;50.744;7.086;2022-08-18T12:26:49;25.50;99.90
15765;DHT22;7983;50.744;7.086;2022-08-18T12:29:19;25.50;99.90
15765;DHT22;7983;50.744;7.086;2022-08-18T12:31:50;25.50;99.90
15765;DHT22;7983;50.744;7.086;2022-08-18T12:34:23;25.60;99.90
15765;DHT22;7983;50.744;7.086;2022-08-18T12:36:57;25.60;99.90
15765;DHT22;7983;50.744;7.086;2022-08-18T12:39:23;25.70;99.90
15765;DHT22;7983;50.744;7.086;2022-08-18T12:41:49;25.90;99.90
15765;DHT22;7983;50.744;7.086;2022-08-18T12:44:42;26.00;99.90
15765;DHT22;7983;50.744;7.086;2022-08-18T12:47:16;26.10;99.90
15765;DHT22;7983;50.744;7.086;2022-08-18T12:49:47;26.10;99.90
15765;DHT22;7983;50.744;7.086;2022-08-18T12:52:13;26.20;99.90
15765;DHT22;7983;50.744;7.086;2022-08-18T12:54:41;26.30;99.90
15765;DHT22;7983;50.744;7.086;2022-08-18T12:57:21;26.30;99.90
15765;DHT22;7983;50.744;7.086;2022-08-18T12:59:48;26.50;99.90
15765;DHT22;7983;50.744;7.086;2022-08-18T13:02:13;26.60;99.90
15765;DHT22;7983;50.744;7.086;2022-08-18T13:04:41;26.70;99.90
15765;DHT22;7983;50.744;7.086;2022-08-18T13:07:07;26.80;99.90
15765;DHT22;7983;50.744;7.086;2022-08-18T13:09:36;26.90;99.90
15765;DHT22;7983;50.744;7.086;2022-08-18T13:12:02;27.00;99.90
15765;DHT22;7983;50.744;7.086;2022-08-18T13:14:28;27.00;99.90
15765;DHT22;7983;50.744;7.086;2022-08-18T13:16:56;27.00;99.90
15765;DHT22;7983;50.744;7.086;2022-08-18T13:19:22;26.90;99.90
15765;DHT22;7983;50.744;7.086;2022-08-18T13:21:50;26.80;99.90
15765;DHT22;7983;50.744;7.086;2022-08-18T13:24:16;26.80;99.90
15765;DHT22;7983;50.744;7.086;2022-08-18T13:26:44;26.70;99.90
15765;DHT22;7983;50.744;7.086;2022-08-18T13:29:11;26.80;99.90
15765;DHT22;7983;50.744;7.086;2022-08-18T13:31:45;26.90;99.90
15765;DHT22;7983;50.744;7.086;2022-08-18T13:34:11;27.00;99.90
15765;DHT22;7983;50.744;7.086;2022-08-18T13:36:38;27.20;99.90
15765;DHT22;7983;50.744;7.086;2022-08-18T13:39:11;27.30;99.90
15765;DHT22;7983;50.744;7.086;2022-08-18T13:41:37;27.30;99.90
15765;DHT22;7983;50.744;7.086;2022-08-18T13:44:03;27.40;99.90
15765;DHT22;7983;50.744;7.086;2022-08-18T13:46:29;27.50;99.90
15765;DHT22;7983;50.744;7.086;2022-08-18T13:48:54;27.60;99.90
15765;DHT22;7983;50.744;7.086;2022-08-18T13:51:29;27.70;99.90
15765;DHT22;7983;50.744;7.086;2022-08-18T13:53:55;27.80;99.90
15765;DHT22;7983;50.744;7.086;2022-08-18T13:56:21;27.90;99.90
15765;DHT22;7983;50.744;7.086;2022-08-18T13:58:49;27.80;99.90
15765;DHT22;7983;50.744;7.086;2022-08-18T14:01:15;27.80;99.90
15765;DHT22;7983;50.744;7.086;2022-08-18T14:03:43;27.80;99.90
15765;DHT22;7983;50.744;7.086;2022-08-18T14:06:09;27.90;99.90
15765;DHT22;7983;50.744;7.086;2022-08-18T14:08:37;27.80;99.90
15765;DHT22;7983;50.744;7.086;2022-08-18T14:11:03;27.80;99.90
15765;DHT22;7983;50.744;7.086;2022-08-18T14:13:31;27.90;99.90
15765;DHT22;7983;50.744;7.086;2022-08-18T14:15:58;28.00;99.90
15765;DHT22;7983;50.744;7.086;2022-08-18T14:18:25;28.00;99.90
15765;DHT22;7983;50.744;7.086;2022-08-18T14:20:51;28.10;99.90
15765;DHT22;7983;50.744;7.086;2022-08-18T14:23:35;28.10;99.90
15765;DHT22;7983;50.744;7.086;2022-08-18T14:26:33;28.10;99.90
15765;DHT22;7983;50.744;7.086;2022-08-18T14:29:15;28.00;99.90
15765;DHT22;7983;50.744;7.086;2022-08-18T14:31:43;28.00;99.90
15765;DHT22;7983;50.744;7.086;2022-08-18T14:34:09;27.90;99.90
15765;DHT22;7983;50.744;7.086;2022-08-18T14:36:43;28.00;99.90
15765;DHT22;7983;50.744;7.086;2022-08-18T14:39:10;28.10;99.90
15765;DHT22;7983;50.744;7.086;2022-08-18T14:41:36;28.10;99.90
15765;DHT22;7983;50.744;7.086;2022-08-18T14:44:02;28.30;99.90
15765;DHT22;7983;50.744;7.086;2022-08-18T14:46:28;28.40;99.90
15765;DHT22;7983;50.744;7.086;2022-08-18T14:48:53;28.50;99.90
15765;DHT22;7983;50.744;7.086;2022-08-18T14:51:21;28.50;99.90
15765;DHT22;7983;50.744;7.086;2022-08-18T14:53:47;28.60;99.90
15765;DHT22;7983;50.744;7.086;2022-08-18T14:56:13;28.70;99.90
15765;DHT22;7983;50.744;7.086;2022-08-18T14:58:41;28.70;99.90
15765;DHT22;7983;50.744;7.086;2022-08-18T15:01:11;28.70;99.90
15765;DHT22;7983;50.744;7.086;2022-08-18T15:03:38;28.80;99.90
15765;DHT22;7983;50.744;7.086;2022-08-18T15:06:07;28.80;99.90
15765;DHT22;7983;50.744;7.086;2022-08-18T15:08:34;28.90;99.90
15765;DHT22;7983;50.744;7.086;2022-08-18T15:11:00;28.90;99.90
15765;DHT22;7983;50.744;7.086;2022-08-18T15:13:27;28.90;99.90
15765;DHT22;7983;50.744;7.086;2022-08-18T15:15:56;29.00;99.70
15765;DHT22;7983;50.744;7.086;2022-08-18T15:18:22;29.00;99.70
15765;DHT22;7983;50.744;7.086;2022-08-18T15:20:50;29.10;99.20
15765;DHT22;7983;50.744;7.086;2022-08-18T15:23:35;29.10;98.90
15765;DHT22;7983;50.744;7.086;2022-08-18T15:26:24;29.10;98.80
15765;DHT22;7983;50.744;7.086;2022-08-18T15:28:51;29.20;98.10
15765;DHT22;7983;50.744;7.086;2022-08-18T15:31:16;29.20;98.30
15765;DHT22;7983;50.744;7.086;2022-08-18T15:33:42;29.20;98.10
15765;DHT22;7983;50.744;7.086;2022-08-18T15:36:08;29.10;97.70
15765;DHT22;7983;50.744;7.086;2022-08-18T15:38:34;29.10;97.50
15765;DHT22;7983;50.744;7.086;2022-08-18T15:41:00;29.10;97.60
15765;DHT22;7983;50.744;7.086;2022-08-18T15:43:31;29.10;97.40
15765;DHT22;7983;50.744;7.086;2022-08-18T15:45:58;29.20;97.00
15765;DHT22;7983;50.744;7.086;2022-08-18T15:48:27;29.20;96.40
15765;DHT22;7983;50.744;7.086;2022-08-18T15:50:55;29.20;96.70
15765;DHT22;7983;50.744;7.086;2022-08-18T15:53:24;29.20;96.30
15765;DHT22;7983;50.744;7.086;2022-08-18T15:55:50;29.20;96.30
15765;DHT22;7983;50.744;7.086;2022-08-18T15:58:21;29.30;96.30
15765;DHT22;7983;50.744;7.086;2022-08-18T16:00:49;29.40;96.00
15765;DHT22;7983;50.744;7.086;2022-08-18T16:03:17;29.50;95.50
15765;DHT22;7983;50.744;7.086;2022-08-18T16:05:47;29.60;94.50
15765;DHT22;7983;50.744;7.086;2022-08-18T16:08:22;29.50;94.20
15765;DHT22;7983;50.744;7.086;2022-08-18T16:10:48;29.50;93.30
15765;DHT22;7983;50.744;7.086;2022-08-18T16:13:14;29.40;93.30
15765;DHT22;7983;50.744;7.086;2022-08-18T16:15:42;29.30;93.30
15765;DHT22;7983;50.744;7.086;2022-08-18T16:18:11;29.20;92.70
15765;DHT22;7983;50.744;7.086;2022-08-18T16:20:37;29.10;92.50
15765;DHT22;7983;50.744;7.086;2022-08-18T16:23:04;29.00;92.60
15765;DHT22;7983;50.744;7.086;2022-08-18T16:25:30;28.90;92.40
15765;DHT22;7983;50.744;7.086;2022-08-18T16:27:59;28.80;92.10
15765;DHT22;7983;50.744;7.086;2022-08-18T16:30:26;28.70;92.10
15765;DHT22;7983;50.744;7.086;2022-08-18T16:32:52;28.60;92.30
15765;DHT22;7983;50.744;7.086;2022-08-18T16:35:19;28.50;92.30
15765;DHT22;7983;50.744;7.086;2022-08-18T16:37:46;28.30;92.40
15765;DHT22;7983;50.744;7.086;2022-08-18T16:40:16;28.30;92.50
15765;DHT22;7983;50.744;7.086;2022-08-18T16:42:43;28.20;92.50
15765;DHT22;7983;50.744;7.086;2022-08-18T16:45:12;28.10;92.60
15765;DHT22;7983;50.744;7.086;2022-08-18T16:47:40;28.10;92.80
15765;DHT22;7983;50.744;7.086;2022-08-18T16:50:16;28.00;92.80
15765;DHT22;7983;50.744;7.086;2022-08-18T16:52:42;28.00;93.00
15765;DHT22;7983;50.744;7.086;2022-08-18T16:55:12;27.90;92.90
15765;DHT22;7983;50.744;7.086;2022-08-18T16:57:39;27.90;92.90
15765;DHT22;7983;50.744;7.086;2022-08-18T17:00:24;27.80;92.90
15765;DHT22;7983;50.744;7.086;2022-08-18T17:03:10;27.80;93.00
15765;DHT22;7983;50.744;7.086;2022-08-18T17:06:02;27.80;92.90
15765;DHT22;7983;50.744;7.086;2022-08-18T17:08:33;27.70;92.80
15765;DHT22;7983;50.744;7.086;2022-08-18T17:11:08;27.70;92.70
15765;DHT22;7983;50.744;7.086;2022-08-18T17:13:35;27.70;92.60
15765;DHT22;7983;50.744;7.086;2022-08-18T17:16:02;27.60;92.70
15765;DHT22;7983;50.744;7.086;2022-08-18T17:18:28;27.60;92.80
15765;DHT22;7983;50.744;7.086;2022-08-18T17:20:55;27.60;92.80
15765;DHT22;7983;50.744;7.086;2022-08-18T17:23:20;27.60;92.80
15765;DHT22;7983;50.744;7.086;2022-08-18T17:25:46;27.50;93.00
15765;DHT22;7983;50.744;7.086;2022-08-18T17:28:13;27.50;92.80
15765;DHT22;7983;50.744;7.086;2022-08-18T17:30:48;27.50;92.90
15765;DHT22;7983;50.744;7.086;2022-08-18T17:33:21;27.50;92.60
15765;DHT22;7983;50.744;7.086;2022-08-18T17:35:47;27.50;92.60
15765;DHT22;7983;50.744;7.086;2022-08-18T17:38:23;27.50;92.80
15765;DHT22;7983;50.744;7.086;2022-08-18T17:40:55;27.50;92.40
15765;DHT22;7983;50.744;7.086;2022-08-18T17:43:32;27.40;92.60
15765;DHT22;7983;50.744;7.086;2022-08-18T17:46:21;27.40;92.70
15765;DHT22;7983;50.744;7.086;2022-08-18T17:51:49;27.30;92.50
15765;DHT22;7983;50.744;7.086;2022-08-18T17:56:58;27.20;92.60
15765;DHT22;7983;50.744;7.086;2022-08-18T17:59:33;27.20;92.60
15765;DHT22;7983;50.744;7.086;2022-08-18T18:02:14;27.10;92.50
15765;DHT22;7983;50.744;7.086;2022-08-18T18:04:42;27.10;92.50
15765;DHT22;7983;50.744;7.086;2022-08-18T18:07:31;27.00;92.60
15765;DHT22;7983;50.744;7.086;2022-08-18T18:13:26;26.90;92.60
15765;DHT22;7983;50.744;7.086;2022-08-18T18:15:58;26.80;92.60
15765;DHT22;7983;50.744;7.086;2022-08-18T18:23:47;26.70;92.70
15765;DHT22;7983;50.744;7.086;2022-08-18T18:28:58;26.60;92.70
15765;DHT22;7983;50.744;7.086;2022-08-18T18:31:34;26.50;92.80
15765;DHT22;7983;50.744;7.086;2022-08-18T18:34:14;26.50;92.90
15765;DHT22;7983;50.744;7.086;2022-08-18T18:36:46;26.50;93.00
15765;DHT22;7983;50.744;7.086;2022-08-18T18:39:22;26.50;93.00
15765;DHT22;7983;50.744;7.086;2022-08-18T18:41:50;26.40;93.00
15765;DHT22;7983;50.744;7.086;2022-08-18T18:44:26;26.40;93.00
15765;DHT22;7983;50.744;7.086;2022-08-18T18:50:06;26.30;93.10
15765;DHT22;7983;50.744;7.086;2022-08-18T18:52:40;26.30;93.20
15765;DHT22;7983;50.744;7.086;2022-08-18T18:55:25;26.30;93.30
15765;DHT22;7983;50.744;7.086;2022-08-18T19:03:19;26.10;93.40
15765;DHT22;7983;50.744;7.086;2022-08-18T19:06:05;26.10;93.60